createdAt,value
2019-04-23T00:02:44.425Z,10.15
2019-04-23T00:05:02.810Z,9.43
2019-04-23T00:07:43.132Z,9.38
2019-04-23T00:10:12.456Z,9.00
2019-04-23T00:15:10.534Z,10.48
2019-04-23T00:20:14.292Z,14.30
2019-04-23T00:22:51.669Z,9.35
2019-04-23T00:25:43.654Z,10.55
2019-04-23T00:28:01.723Z,10.82
2019-04-23T00:30:36.551Z,11.40
2019-04-23T00:33:05.864Z,9.73
2019-04-23T00:35:32.624Z,9.88
2019-04-23T00:38:10.473Z,11.33
2019-04-23T00:43:17.339Z,10.53
2019-04-23T00:45:48.495Z,13.00
2019-04-23T00:48:28.926Z,11.38
2019-04-23T00:50:58.602Z,8.53
2019-04-23T00:53:24.898Z,10.53
2019-04-23T00:56:09.728Z,11.33
2019-04-23T00:58:41.615Z,9.95
2019-04-23T01:00:59.891Z,11.22
2019-04-23T01:03:25.610Z,9.68
2019-04-23T01:06:21.167Z,8.03
2019-04-23T01:08:35.624Z,10.18
2019-04-23T01:11:13.385Z,12.93
2019-04-23T01:13:49.580Z,12.53
2019-04-23T01:16:28.331Z,11.12
2019-04-23T01:18:51.376Z,11.10
2019-04-23T01:21:07.590Z,9.43
2019-04-23T01:23:53.975Z,9.50
2019-04-23T01:26:40.645Z,10.82
2019-04-23T01:29:21.260Z,11.35
2019-04-23T01:31:57.451Z,11.08
2019-04-23T01:34:28.033Z,11.18
2019-04-23T01:36:54.169Z,10.00
2019-04-23T01:39:23.283Z,9.85
2019-04-23T01:42:03.678Z,10.50
2019-04-23T01:44:38.750Z,10.53
2019-04-23T01:47:00.881Z,14.40
2019-04-23T01:49:36.000Z,6.97
2019-04-23T01:52:08.449Z,11.75
2019-04-23T01:54:38.650Z,11.68
2019-04-23T01:57:09.195Z,11.18
2019-04-23T01:59:46.188Z,11.85
2019-04-23T02:02:19.329Z,12.40
2019-04-23T02:04:52.642Z,11.03
2019-04-23T02:07:34.185Z,11.05
2019-04-23T02:10:16.685Z,9.53
2019-04-23T02:12:25.682Z,10.65
2019-04-23T02:15:03.618Z,9.33
2019-04-23T02:17:34.071Z,11.97
2019-04-23T02:22:52.112Z,11.10
2019-04-23T02:25:24.839Z,11.75
2019-04-23T02:27:53.745Z,12.93
2019-04-23T02:30:40.957Z,7.83
2019-04-23T02:35:42.663Z,9.18
2019-04-23T02:40:49.538Z,10.90
2019-04-23T02:43:13.059Z,10.35
2019-04-23T02:45:48.521Z,11.95
2019-04-23T02:53:26.330Z,8.53
2019-04-23T02:55:52.294Z,10.23
2019-04-23T02:58:28.298Z,14.87
2019-04-23T03:01:14.994Z,12.15
2019-04-23T03:06:00.977Z,7.25
2019-04-23T03:08:36.422Z,12.15
2019-04-23T03:11:09.859Z,11.12
2019-04-23T03:18:56.637Z,8.05
2019-04-23T03:21:25.471Z,13.95
2019-04-23T03:26:47.367Z,11.88
2019-04-23T03:29:16.687Z,8.43
2019-04-23T03:34:52.127Z,12.20
2019-04-23T03:39:13.940Z,13.05
2019-04-23T03:41:48.483Z,13.35
2019-04-23T03:44:20.581Z,12.78
2019-04-23T03:46:51.449Z,10.78
2019-04-23T03:49:32.897Z,13.60
2019-04-23T03:52:07.429Z,11.45
2019-04-23T03:57:21.903Z,12.65
2019-04-23T04:02:19.789Z,12.23
2019-04-23T04:04:39.534Z,11.57
2019-04-23T04:17:23.706Z,10.05
2019-04-23T04:25:05.183Z,12.53
2019-04-23T04:27:43.400Z,14.93
2019-04-23T04:30:07.811Z,11.60
2019-04-23T04:32:31.612Z,10.72
2019-04-23T04:42:41.852Z,12.40
2019-04-23T04:45:20.329Z,24.67
2019-04-23T04:50:15.413Z,14.85
2019-04-23T04:55:26.332Z,11.95
2019-04-23T04:57:52.934Z,11.50
2019-04-23T05:00:34.715Z,11.97
2019-04-23T05:03:12.592Z,12.43
2019-04-23T05:06:01.452Z,9.93
2019-04-23T05:13:24.740Z,11.55
2019-04-23T05:15:39.016Z,15.28
2019-04-23T05:20:52.954Z,11.35
2019-04-23T05:23:25.651Z,13.15
2019-04-23T05:25:49.991Z,14.47
2019-04-23T05:28:54.442Z,13.22
2019-04-23T05:31:01.587Z,11.88
2019-04-23T05:33:28.894Z,10.43
2019-04-23T05:38:43.208Z,14.28
2019-04-23T05:41:10.047Z,9.20
2019-04-23T05:43:40.811Z,12.30
2019-04-23T05:46:16.109Z,10.65
2019-04-23T05:48:42.947Z,15.05
2019-04-23T05:51:24.294Z,9.05
2019-04-23T05:53:56.277Z,17.73
2019-04-23T05:56:20.564Z,15.35
2019-04-23T05:58:55.817Z,21.97
2019-04-23T06:11:58.611Z,12.25
2019-04-23T06:14:19.131Z,16.70
2019-04-23T06:22:00.450Z,14.20
2019-04-23T06:26:57.521Z,23.77
2019-04-23T06:29:25.927Z,18.87
2019-04-23T06:31:53.985Z,26.68
2019-04-23T06:34:29.686Z,20.15
2019-04-23T06:36:57.079Z,14.10
2019-04-23T06:39:39.607Z,21.45
2019-04-23T06:42:09.137Z,21.33
2019-04-23T06:44:37.345Z,19.50
2019-04-23T06:49:44.142Z,16.10
2019-04-23T06:52:18.707Z,24.12
2019-04-23T06:54:56.186Z,19.40
2019-04-23T06:59:48.471Z,24.72
2019-04-23T07:02:30.886Z,23.10
2019-04-23T07:05:06.503Z,20.23
2019-04-23T07:09:57.907Z,13.93
2019-04-23T07:12:38.965Z,20.27
2019-04-23T07:17:34.533Z,21.10
2019-04-23T07:20:08.294Z,11.53
2019-04-23T07:22:34.541Z,20.60
2019-04-23T07:25:14.121Z,14.95
2019-04-23T07:27:41.082Z,15.98
2019-04-23T07:35:25.015Z,11.05
2019-04-23T07:38:01.830Z,17.00
2019-04-23T07:40:44.762Z,16.60
2019-04-23T07:43:39.704Z,13.83
2019-04-23T07:46:34.538Z,18.92
2019-04-23T07:48:58.993Z,16.73
2019-04-23T07:51:35.658Z,21.30
2019-04-23T07:54:09.547Z,18.75
2019-04-23T07:56:37.288Z,18.92
2019-04-23T07:59:16.098Z,10.82
2019-04-23T08:01:47.762Z,19.45
2019-04-23T08:04:10.143Z,19.15
2019-04-23T08:06:50.618Z,17.25
2019-04-23T08:09:17.351Z,13.05
2019-04-23T08:14:15.085Z,13.95
2019-04-23T08:16:49.918Z,11.85
2019-04-23T08:19:32.309Z,22.67
2019-04-23T08:22:10.818Z,36.05
2019-04-23T08:24:45.398Z,28.52
2019-04-23T08:29:36.366Z,26.77
2019-04-23T08:32:29.533Z,16.48
2019-04-23T08:40:08.254Z,31.50
2019-04-23T08:42:38.498Z,23.35
2019-04-23T08:47:50.708Z,18.00
2019-04-23T08:50:27.615Z,17.50
2019-04-23T08:53:14.867Z,18.15
2019-04-23T08:55:32.235Z,32.05
2019-04-23T08:57:59.215Z,23.10
2019-04-23T09:00:40.430Z,22.02
2019-04-23T09:03:13.127Z,19.98
2019-04-23T09:05:45.222Z,21.20
2019-04-23T09:08:17.123Z,20.40
2019-04-23T09:13:40.184Z,11.90
2019-04-23T09:15:51.077Z,26.73
2019-04-23T09:18:21.225Z,32.58
2019-04-23T09:20:52.996Z,32.80
2019-04-23T09:23:34.903Z,15.85
2019-04-23T09:31:11.655Z,22.52
2019-04-23T09:33:46.781Z,17.98
2019-04-23T09:36:37.959Z,20.50
2019-04-23T09:39:08.380Z,24.52
2019-04-23T09:41:39.838Z,16.65
2019-04-23T09:44:48.479Z,7.92
2019-04-23T09:47:17.486Z,24.67
2019-04-23T09:49:40.439Z,13.98
2019-04-23T09:52:13.325Z,18.42
2019-04-23T09:55:11.430Z,22.32
2019-04-23T09:57:15.979Z,9.78
2019-04-23T09:59:49.807Z,28.42
2019-04-23T10:02:19.509Z,16.10
2019-04-23T10:04:44.904Z,25.35
2019-04-23T10:07:12.621Z,21.82
2019-04-23T10:09:34.223Z,21.73
2019-04-23T10:12:07.326Z,20.80
2019-04-23T10:14:38.659Z,17.42
2019-04-23T10:17:10.379Z,14.83
2019-04-23T10:19:42.604Z,20.23
2019-04-23T10:22:13.360Z,17.25
2019-04-23T10:24:45.607Z,14.75
2019-04-23T10:27:17.027Z,11.28
2019-04-23T10:29:47.943Z,16.40
2019-04-23T10:32:19.764Z,18.25
2019-04-23T10:35:03.508Z,19.48
2019-04-23T10:37:34.330Z,14.33
2019-04-23T10:40:00.378Z,30.80
2019-04-23T10:42:30.707Z,23.57
2019-04-23T10:45:16.605Z,29.00
2019-04-23T10:48:31.756Z,20.23
2019-04-23T10:50:55.399Z,25.30
2019-04-23T10:56:00.688Z,15.85
2019-04-23T11:01:04.593Z,22.48
2019-04-23T11:06:17.631Z,16.93
2019-04-23T11:08:50.491Z,19.15
2019-04-23T11:11:16.563Z,21.77
2019-04-23T11:18:59.881Z,26.37
2019-04-23T11:21:31.344Z,26.50
2019-04-23T11:24:01.739Z,27.67
2019-04-23T11:29:12.745Z,35.38
2019-04-23T11:31:58.469Z,34.53
2019-04-23T11:34:19.971Z,12.47
2019-04-23T11:39:16.543Z,10.88
2019-04-23T11:41:51.393Z,36.20
2019-04-23T11:44:30.617Z,21.57
2019-04-23T11:54:30.907Z,31.25
2019-04-23T11:57:22.281Z,19.50
2019-04-23T11:59:40.785Z,44.75
2019-04-23T12:02:07.500Z,21.40
2019-04-23T12:04:57.588Z,28.73
2019-04-23T12:07:34.382Z,33.98
2019-04-23T12:10:20.020Z,31.17
2019-04-23T12:12:55.606Z,24.23
2019-04-23T12:15:18.097Z,28.32
2019-04-23T12:17:50.761Z,37.53
2019-04-23T12:20:28.568Z,29.42
2019-04-23T12:23:06.145Z,32.35
2019-04-23T12:25:34.112Z,36.38
2019-04-23T12:28:01.411Z,40.78
2019-04-23T12:30:39.451Z,42.65
2019-04-23T12:33:13.013Z,39.08
2019-04-23T12:35:40.763Z,24.87
2019-04-23T12:38:23.832Z,26.45
2019-04-23T12:40:45.913Z,44.03
2019-04-23T12:45:47.350Z,39.95
2019-04-23T12:48:33.724Z,36.42
2019-04-23T12:53:30.589Z,44.55
2019-04-23T12:56:05.007Z,38.55
2019-04-23T12:58:38.276Z,36.42
2019-04-23T13:00:58.425Z,28.57
2019-04-23T13:03:37.245Z,31.35
2019-04-23T13:05:59.330Z,24.23
2019-04-23T13:08:46.735Z,23.75
2019-04-23T13:11:14.047Z,29.20
2019-04-23T13:13:53.303Z,21.82
2019-04-23T13:16:25.472Z,30.27
2019-04-23T13:18:49.777Z,16.15
2019-04-23T13:21:45.314Z,33.33
2019-04-23T13:24:04.937Z,44.08
2019-04-23T13:26:35.621Z,32.45
2019-04-23T13:29:32.920Z,20.57
2019-04-23T13:31:34.363Z,32.42
2019-04-23T13:34:16.325Z,30.52
2019-04-23T13:36:46.768Z,27.40
2019-04-23T13:39:18.044Z,22.22
2019-04-23T13:41:48.243Z,25.25
2019-04-23T13:44:25.586Z,26.27
2019-04-23T13:47:00.002Z,29.85
2019-04-23T13:49:37.565Z,40.03
2019-04-23T13:52:05.913Z,27.80
2019-04-23T13:54:58.064Z,24.27
2019-04-23T13:57:34.745Z,23.83
2019-04-23T14:02:19.626Z,27.85
2019-04-23T14:05:06.280Z,27.00
2019-04-23T14:07:38.797Z,21.70
2019-04-23T14:10:14.867Z,23.42
2019-04-23T14:12:52.118Z,18.67
2019-04-23T14:15:10.728Z,27.90
2019-04-23T14:17:51.564Z,22.67
2019-04-23T14:20:18.904Z,15.38
2019-04-23T14:23:00.313Z,21.57
2019-04-23T14:25:16.678Z,25.57
2019-04-23T14:28:00.205Z,18.12
2019-04-23T14:30:29.879Z,24.15
2019-04-23T14:33:00.945Z,18.77
2019-04-23T14:38:15.897Z,23.62
2019-04-23T14:48:17.659Z,35.85
2019-04-23T14:50:54.669Z,33.80
2019-04-23T14:56:07.610Z,28.90
2019-04-23T15:01:15.996Z,30.72
2019-04-23T15:03:39.889Z,22.93
2019-04-23T15:08:57.413Z,29.55
2019-04-23T15:11:20.906Z,28.38
2019-04-23T15:13:47.364Z,29.80
2019-04-23T15:16:20.508Z,24.12
2019-04-23T15:24:00.838Z,38.40
2019-04-23T15:28:39.433Z,27.20
2019-04-23T15:31:35.061Z,37.50
2019-04-23T15:34:09.176Z,18.95
2019-04-23T15:36:58.149Z,28.83
2019-04-23T15:41:53.020Z,28.67
2019-04-23T15:46:56.636Z,24.32
2019-04-23T15:49:22.990Z,25.97
2019-04-23T15:52:00.751Z,30.27
2019-04-23T15:54:28.115Z,29.67
2019-04-23T15:56:55.054Z,19.17
2019-04-23T16:01:41.264Z,21.68
2019-04-23T16:04:06.108Z,18.82
2019-04-23T16:06:38.569Z,22.60
2019-04-23T16:09:36.219Z,17.80
2019-04-23T16:12:03.458Z,23.65
2019-04-23T16:14:56.783Z,16.87
2019-04-23T16:20:12.639Z,21.15
2019-04-23T16:22:30.438Z,13.25
2019-04-23T16:25:09.870Z,11.90
2019-04-23T16:27:29.313Z,17.42
2019-04-23T16:30:14.225Z,18.20
2019-04-23T16:32:56.089Z,20.82
2019-04-23T16:35:28.371Z,15.98
2019-04-23T16:38:01.448Z,17.92
2019-04-23T16:40:28.338Z,16.50
2019-04-23T16:43:00.841Z,18.10
2019-04-23T16:48:07.368Z,17.65
2019-04-23T16:50:41.340Z,13.45
2019-04-23T16:58:23.215Z,15.43
2019-04-23T17:01:00.481Z,17.52
2019-04-23T17:03:28.191Z,18.15
2019-04-23T17:05:57.859Z,16.40
2019-04-23T17:16:06.751Z,16.27
2019-04-23T17:18:31.189Z,17.62
2019-04-23T17:21:10.237Z,17.60
2019-04-23T17:26:10.679Z,17.42
2019-04-23T17:28:39.470Z,18.82
2019-04-23T17:31:34.525Z,19.92
2019-04-23T17:33:52.037Z,16.82
2019-04-23T17:36:33.505Z,19.60
2019-04-23T17:39:08.232Z,20.40
2019-04-23T17:41:38.873Z,20.00
2019-04-23T17:46:56.277Z,16.85
2019-04-23T17:49:23.375Z,19.23
2019-04-23T17:51:59.269Z,19.35
2019-04-23T17:54:43.276Z,20.62
2019-04-23T17:57:07.566Z,26.95
2019-04-23T18:05:02.632Z,23.52
2019-04-23T18:10:24.943Z,21.97
2019-04-23T18:15:04.957Z,21.57
2019-04-23T18:20:13.481Z,27.50
2019-04-23T18:22:49.155Z,28.12
2019-04-23T18:27:54.193Z,27.85
2019-04-23T18:30:26.367Z,27.17
2019-04-23T18:33:43.393Z,31.37
2019-04-23T18:38:22.872Z,29.48
2019-04-23T18:41:00.793Z,32.10
2019-04-23T18:43:23.976Z,29.27
2019-04-23T18:45:54.080Z,34.67
2019-04-23T18:48:40.447Z,31.62
2019-04-23T18:51:03.820Z,30.43
2019-04-23T18:56:20.785Z,28.23
2019-04-23T19:01:27.917Z,26.95
2019-04-23T19:04:06.511Z,28.35
2019-04-23T19:06:34.483Z,25.92
2019-04-23T19:09:39.131Z,31.33
2019-04-23T19:12:14.346Z,27.45
2019-04-23T19:14:53.577Z,28.07
2019-04-23T19:17:44.121Z,31.05
2019-04-23T19:19:49.934Z,26.15
2019-04-23T19:25:09.354Z,26.12
2019-04-23T19:27:29.454Z,24.90
2019-04-23T19:30:07.063Z,26.68
2019-04-23T19:32:43.511Z,28.17
2019-04-23T19:35:23.752Z,25.97
2019-04-23T19:40:20.162Z,28.38
2019-04-23T19:42:52.358Z,21.35
2019-04-23T19:45:30.542Z,28.32
2019-04-23T19:47:58.662Z,30.88
2019-04-23T19:50:32.951Z,27.95
2019-04-23T19:53:14.228Z,26.20
2019-04-23T19:55:29.915Z,27.00
2019-04-23T19:58:15.023Z,26.37
2019-04-23T20:00:58.245Z,27.13
2019-04-23T20:03:25.976Z,28.10
2019-04-23T20:05:47.078Z,26.70
2019-04-23T20:08:31.395Z,23.47
2019-04-23T20:11:01.283Z,26.37
2019-04-23T20:13:21.733Z,25.70
2019-04-23T20:16:05.409Z,25.08
2019-04-23T20:18:37.894Z,25.77
2019-04-23T20:20:54.229Z,24.05
2019-04-23T20:23:45.473Z,26.12
2019-04-23T20:26:16.100Z,27.42
2019-04-23T20:32:53.964Z,23.15
2019-04-23T20:36:45.919Z,27.37
2019-04-23T20:39:16.380Z,27.32
2019-04-23T20:47:05.758Z,25.35
2019-04-23T20:49:38.781Z,26.97
2019-04-23T20:52:04.652Z,25.12
2019-04-23T20:54:50.911Z,24.23
2019-04-23T21:05:17.158Z,30.70
2019-04-23T21:10:27.665Z,25.43
2019-04-23T21:25:39.136Z,23.32
2019-04-23T21:28:31.440Z,25.43
2019-04-23T21:36:10.728Z,23.18
2019-04-23T21:38:39.832Z,27.87
2019-04-23T21:43:47.331Z,22.32
2019-04-23T21:46:14.569Z,26.85
2019-04-23T21:48:53.075Z,24.02
2019-04-23T21:51:22.964Z,24.30
2019-04-23T21:53:50.673Z,23.32
2019-04-23T21:56:15.544Z,22.13
2019-04-23T21:58:57.935Z,25.40
2019-04-23T22:01:32.111Z,22.15
2019-04-23T22:04:12.773Z,24.92
2019-04-23T22:06:35.804Z,23.73
2019-04-23T22:19:26.789Z,17.05
2019-04-23T22:21:45.341Z,20.65
2019-04-23T22:26:45.289Z,21.85
2019-04-23T22:34:36.793Z,14.50
2019-04-23T22:37:09.838Z,19.05
2019-04-23T22:39:34.560Z,21.82
2019-04-23T22:42:08.880Z,17.27
2019-04-23T22:44:51.605Z,16.77
2019-04-23T22:47:05.966Z,15.35
2019-04-23T22:49:47.948Z,20.45
2019-04-23T22:52:16.423Z,15.28
2019-04-23T22:54:57.584Z,11.95
2019-04-23T22:57:09.015Z,18.12
2019-04-23T23:00:04.549Z,16.52
2019-04-23T23:07:47.701Z,20.20
2019-04-23T23:12:51.350Z,15.80
2019-04-23T23:18:07.487Z,17.20
2019-04-23T23:20:20.847Z,22.32
2019-04-23T23:23:05.603Z,12.23
2019-04-23T23:28:00.617Z,15.83
2019-04-23T23:30:26.568Z,19.42
2019-04-23T23:33:02.564Z,20.92
2019-04-23T23:35:31.228Z,15.05
2019-04-23T23:38:09.773Z,16.35
2019-04-23T23:40:40.277Z,16.70
2019-04-23T23:45:53.169Z,22.22
2019-04-23T23:48:13.081Z,16.00
2019-04-23T23:50:55.092Z,18.67
2019-04-23T23:53:32.888Z,16.80
2019-04-23T23:55:58.685Z,18.73
2019-04-23T23:58:36.580Z,8.78
